createdAt,value
2022-07-30T00:01:51.691Z,99893.19
2022-07-30T00:04:20.305Z,99901.09
2022-07-30T00:06:47.079Z,99901.78
2022-07-30T00:09:13.807Z,99915.31
2022-07-30T00:11:40.508Z,99915.50
2022-07-30T00:14:08.295Z,99908.84
2022-07-30T00:16:35.006Z,99923.00
2022-07-30T00:19:02.303Z,99916.75
2022-07-30T00:21:35.827Z,99926.16
2022-07-30T00:24:06.340Z,99922.88
2022-07-30T00:26:32.986Z,99912.25
2022-07-30T00:28:59.873Z,99910.97
2022-07-30T00:31:26.505Z,99899.75
2022-07-30T00:33:53.259Z,99892.09
2022-07-30T00:36:21.020Z,99883.28
2022-07-30T00:38:47.938Z,99886.88
2022-07-30T00:41:15.562Z,99888.94
2022-07-30T00:43:43.843Z,99880.44
2022-07-30T00:46:10.602Z,99889.59
2022-07-30T00:48:37.514Z,99892.53
2022-07-30T00:51:04.613Z,99886.69
2022-07-30T00:53:31.239Z,99889.00
2022-07-30T00:55:57.980Z,99894.81
2022-07-30T00:58:26.097Z,99891.06
2022-07-30T01:00:53.033Z,99891.91
2022-07-30T01:03:19.957Z,99888.59
2022-07-30T01:05:46.633Z,99892.97
2022-07-30T01:08:14.071Z,99892.34
2022-07-30T01:10:40.770Z,99893.63
2022-07-30T01:13:07.973Z,99886.09
2022-07-30T01:15:35.098Z,99885.50
2022-07-30T01:18:04.162Z,99885.69
2022-07-30T01:20:38.886Z,99887.78
2022-07-30T01:23:14.870Z,99889.66
2022-07-30T01:25:57.091Z,99890.50
2022-07-30T01:28:27.833Z,99884.66
2022-07-30T01:30:55.862Z,99881.75
2022-07-30T01:33:23.198Z,99874.88
2022-07-30T01:35:50.842Z,99875.06
2022-07-30T01:38:21.889Z,99878.63
2022-07-30T01:40:51.802Z,99881.75
2022-07-30T01:43:20.143Z,99869.69
2022-07-30T01:45:49.913Z,99876.78
2022-07-30T01:48:20.521Z,99874.88
2022-07-30T01:50:51.498Z,99873.44
2022-07-30T01:53:21.416Z,99868.03
2022-07-30T01:55:48.541Z,99873.66
2022-07-30T01:58:19.461Z,99873.44
2022-07-30T02:00:49.298Z,99869.72
2022-07-30T02:03:16.187Z,99874.47
2022-07-30T02:05:50.698Z,99879.25
2022-07-30T02:08:40.513Z,99887.38
2022-07-30T02:11:09.844Z,99882.16
2022-07-30T02:13:50.817Z,99881.13
2022-07-30T02:16:24.822Z,99891.91
2022-07-30T02:19:06.127Z,99893.81
2022-07-30T02:21:50.353Z,99895.25
2022-07-30T02:25:32.966Z,99898.91
2022-07-30T02:28:07.084Z,99890.63
2022-07-30T02:30:36.858Z,99898.56
2022-07-30T02:33:10.513Z,99892.25
2022-07-30T02:35:37.779Z,99898.31
2022-07-30T02:38:05.566Z,99912.06
2022-07-30T02:40:32.823Z,99906.81
2022-07-30T02:43:01.146Z,99914.50
2022-07-30T02:45:29.325Z,99907.88
2022-07-30T02:48:03.159Z,99913.03
2022-07-30T02:50:30.983Z,99922.38
2022-07-30T02:52:59.722Z,99929.41
2022-07-30T02:55:28.574Z,99925.47
2022-07-30T02:57:56.443Z,99921.38
2022-07-30T03:00:24.454Z,99932.59
2022-07-30T03:02:56.778Z,99930.47
2022-07-30T03:05:25.075Z,99937.75
2022-07-30T03:07:55.406Z,99935.81
2022-07-30T03:10:22.824Z,99937.91
2022-07-30T03:12:50.502Z,99937.28
2022-07-30T03:15:18.407Z,99942.69
2022-07-30T03:17:46.442Z,99942.22
2022-07-30T03:20:16.095Z,99945.56
2022-07-30T03:22:45.181Z,99950.78
2022-07-30T03:25:14.592Z,99939.75
2022-07-30T03:27:42.979Z,99944.56
2022-07-30T03:30:12.289Z,99945.56
2022-07-30T03:32:39.382Z,99951.38
2022-07-30T03:35:17.102Z,99949.28
2022-07-30T03:37:46.265Z,99943.28
2022-07-30T03:40:14.071Z,99955.53
2022-07-30T03:42:41.235Z,99960.13
2022-07-30T03:45:09.051Z,99954.69
2022-07-30T03:47:38.783Z,99955.72
2022-07-30T03:50:06.330Z,99960.31
2022-07-30T03:52:38.635Z,99959.78
2022-07-30T03:55:10.849Z,99959.19
2022-07-30T03:57:49.868Z,99969.34
2022-07-30T04:00:18.358Z,99971.22
2022-07-30T04:02:49.819Z,99975.97
2022-07-30T04:05:41.096Z,99973.06
2022-07-30T04:08:09.129Z,99976.41
2022-07-30T04:10:35.937Z,99984.47
2022-07-30T04:13:09.172Z,99971.22
2022-07-30T04:16:36.870Z,99991.09
2022-07-30T04:18:37.843Z,99988.00
2022-07-30T04:21:06.118Z,99990.53
2022-07-30T04:23:33.381Z,99990.72
2022-07-30T04:26:21.173Z,99991.16
2022-07-30T04:29:18.244Z,99995.34
2022-07-30T04:31:47.244Z,99992.06
2022-07-30T04:34:32.890Z,99996.97
2022-07-30T04:37:00.184Z,99993.22
2022-07-30T04:39:28.220Z,99999.66
2022-07-30T04:41:54.949Z,100005.91
2022-07-30T04:44:34.233Z,100012.97
2022-07-30T04:47:19.867Z,100019.50
2022-07-30T04:50:09.070Z,100022.63
2022-07-30T04:52:36.307Z,100025.09
2022-07-30T04:55:07.152Z,100027.59
2022-07-30T04:57:35.664Z,100022.78
2022-07-30T05:00:06.860Z,100020.50
2022-07-30T05:02:37.888Z,100032.34
2022-07-30T05:05:05.661Z,100026.72
2022-07-30T05:07:32.912Z,100030.66
2022-07-30T05:10:01.843Z,100030.66
2022-07-30T05:12:33.648Z,100029.38
2022-07-30T05:15:01.079Z,100026.44
2022-07-30T05:17:28.844Z,100036.88
2022-07-30T05:19:56.381Z,100039.13
2022-07-30T05:22:25.510Z,100039.56
2022-07-30T05:24:52.323Z,100046.19
2022-07-30T05:27:20.329Z,100039.59
2022-07-30T05:29:47.092Z,100037.06
2022-07-30T05:32:18.464Z,100045.84
2022-07-30T05:34:49.828Z,100053.72
2022-07-30T05:37:17.304Z,100054.19
2022-07-30T05:40:02.764Z,100047.91
2022-07-30T05:42:50.507Z,100047.88
2022-07-30T05:45:19.359Z,100046.22
2022-07-30T05:47:46.458Z,100052.69
2022-07-30T05:50:13.377Z,100049.81
2022-07-30T05:52:41.035Z,100052.28
2022-07-30T05:55:27.685Z,100057.31
2022-07-30T05:58:08.621Z,100052.53
2022-07-30T06:00:35.731Z,100057.50
2022-07-30T06:03:02.929Z,100057.94
2022-07-30T06:05:49.792Z,100056.06
2022-07-30T06:08:17.583Z,100060.88
2022-07-30T06:10:46.233Z,100063.16
2022-07-30T06:13:13.081Z,100062.31
2022-07-30T06:15:40.139Z,100056.97
2022-07-30T06:18:10.534Z,100070.84
2022-07-30T06:20:43.285Z,100066.31
2022-07-30T06:23:19.520Z,100065.47
2022-07-30T06:26:06.205Z,100072.16
2022-07-30T06:28:38.079Z,100067.16
2022-07-30T06:31:15.103Z,100076.31
2022-07-30T06:33:43.061Z,100067.56
2022-07-30T06:36:13.731Z,100066.97
2022-07-30T06:38:51.559Z,100074.25
2022-07-30T06:41:25.682Z,100076.13
2022-07-30T06:43:53.717Z,100079.22
2022-07-30T06:46:39.168Z,100079.44
2022-07-30T06:49:06.000Z,100081.09
2022-07-30T06:51:33.308Z,100082.97
2022-07-30T06:54:00.383Z,100079.22
2022-07-30T06:56:37.299Z,100081.94
2022-07-30T06:59:06.425Z,100074.66
2022-07-30T07:02:05.006Z,100086.53
2022-07-30T07:04:39.239Z,100079.44
2022-07-30T07:07:12.578Z,100078.19
2022-07-30T07:09:40.373Z,100076.09
2022-07-30T07:12:30.010Z,100080.91
2022-07-30T07:14:56.870Z,100079.00
2022-07-30T07:17:23.784Z,100079.19
2022-07-30T07:20:05.962Z,100073.38
2022-07-30T07:22:39.985Z,100075.22
2022-07-30T07:25:08.735Z,100073.78
2022-07-30T07:27:36.956Z,100076.47
2022-07-30T07:30:06.170Z,100089.16
2022-07-30T07:32:37.325Z,100081.94
2022-07-30T07:35:05.830Z,100078.75
2022-07-30T07:37:34.683Z,100068.31
2022-07-30T07:40:03.305Z,100079.56
2022-07-30T07:42:33.455Z,100081.03
2022-07-30T07:45:01.196Z,100071.03
2022-07-30T07:47:43.270Z,100078.53
2022-07-30T07:50:41.770Z,100069.75
2022-07-30T07:53:16.133Z,100075.38
2022-07-30T07:55:42.930Z,100081.19
2022-07-30T07:58:13.476Z,100079.91
2022-07-30T08:00:44.760Z,100084.06
2022-07-30T08:03:12.008Z,100077.63
2022-07-30T08:05:56.784Z,100075.13
2022-07-30T08:08:45.607Z,100089.69
2022-07-30T08:11:31.103Z,100088.41
2022-07-30T08:14:17.737Z,100075.31
2022-07-30T08:17:03.316Z,100072.41
2022-07-30T08:19:51.665Z,100070.31
2022-07-30T08:22:21.670Z,100072.13
2022-07-30T08:24:48.417Z,100068.81
2022-07-30T08:27:15.402Z,100078.19
2022-07-30T08:29:42.586Z,100068.19
2022-07-30T08:32:09.496Z,100073.41
2022-07-30T08:34:38.816Z,100068.56
2022-07-30T08:37:05.605Z,100070.38
2022-07-30T08:39:34.783Z,100070.81
2022-07-30T08:42:05.051Z,100072.69
2022-07-30T08:44:33.139Z,100074.34
2022-07-30T08:47:03.208Z,100069.75
2022-07-30T08:49:48.966Z,100074.53
2022-07-30T08:52:18.619Z,100079.50
2022-07-30T08:54:51.712Z,100072.78
2022-07-30T08:57:23.592Z,100070.06
2022-07-30T08:59:59.386Z,100074.22
2022-07-30T09:02:30.548Z,100068.97
2022-07-30T09:05:04.748Z,100074.56
2022-07-30T09:08:08.539Z,100072.50
2022-07-30T09:10:35.729Z,100073.75
2022-07-30T09:13:02.513Z,100078.06
2022-07-30T09:15:29.477Z,100073.13
2022-07-30T09:18:01.715Z,100076.28
2022-07-30T09:20:34.131Z,100076.03
2022-07-30T09:23:04.341Z,100071.13
2022-07-30T09:25:38.120Z,100073.31
2022-07-30T09:28:36.971Z,100069.97
2022-07-30T09:31:53.230Z,100076.66
2022-07-30T09:34:43.105Z,100087.03
2022-07-30T09:37:28.592Z,100069.25
2022-07-30T09:40:18.583Z,100076.72
2022-07-30T09:43:11.524Z,100064.16
2022-07-30T09:45:56.885Z,100078.13
2022-07-30T09:48:26.731Z,100087.25
2022-07-30T09:50:55.011Z,100087.25
2022-07-30T09:53:24.544Z,100070.81
2022-07-30T09:55:51.375Z,100098.78
2022-07-30T09:58:26.501Z,100078.34
2022-07-30T10:00:57.800Z,100077.69
2022-07-30T10:03:46.676Z,100088.22
2022-07-30T10:06:34.803Z,100071.91
2022-07-30T10:09:14.082Z,100077.97
2022-07-30T10:11:48.445Z,100077.19
2022-07-30T10:14:15.601Z,100076.78
2022-07-30T10:16:42.439Z,100075.91
2022-07-30T10:19:18.071Z,100070.41
2022-07-30T10:22:05.270Z,100071.69
2022-07-30T10:24:50.499Z,100063.53
2022-07-30T10:27:37.223Z,100075.16
2022-07-30T10:30:24.905Z,100076.81
2022-07-30T10:32:54.889Z,100063.63
2022-07-30T10:35:34.831Z,100061.28
2022-07-30T10:38:08.543Z,100058.13
2022-07-30T10:40:39.509Z,100063.13
2022-07-30T10:43:31.902Z,100053.31
2022-07-30T10:46:23.298Z,100052.41
2022-07-30T10:48:50.209Z,100055.44
2022-07-30T10:51:25.570Z,100054.00
2022-07-30T10:54:01.646Z,100054.97
2022-07-30T10:56:28.410Z,100059.88
2022-07-30T10:59:00.250Z,100051.97
2022-07-30T11:01:51.692Z,100049.69
2022-07-30T11:04:29.544Z,100055.97
2022-07-30T11:07:49.501Z,100048.69
2022-07-30T11:10:37.229Z,100020.63
2022-07-30T11:13:05.845Z,100029.44
2022-07-30T11:15:59.703Z,100038.41
2022-07-30T11:18:26.764Z,100039.06
2022-07-30T11:21:24.666Z,100036.44
2022-07-30T11:23:54.824Z,100041.13
2022-07-30T11:26:41.594Z,100039.72
2022-07-30T11:29:50.528Z,100038.38
2022-07-30T11:32:32.468Z,100026.84
2022-07-30T11:35:24.281Z,100030.53
2022-07-30T11:38:12.945Z,100018.16
2022-07-30T11:41:02.405Z,100036.44
2022-07-30T11:43:35.564Z,100015.44
2022-07-30T11:46:16.471Z,100014.78
2022-07-30T11:49:08.197Z,100011.44
2022-07-30T11:51:41.997Z,100011.47
2022-07-30T11:54:10.712Z,100010.59
2022-07-30T11:56:37.557Z,100012.38
2022-07-30T11:59:05.729Z,100014.41
2022-07-30T12:01:33.409Z,100003.53
2022-07-30T12:04:04.664Z,100013.34
2022-07-30T12:06:36.394Z,100003.06
2022-07-30T12:09:03.339Z,100015.63
2022-07-30T12:11:33.647Z,100009.56
2022-07-30T12:14:02.000Z,100016.31
2022-07-30T12:16:30.715Z,100000.59
2022-07-30T12:19:05.191Z,99994.69
2022-07-30T12:21:32.183Z,99996.59
2022-07-30T12:24:02.167Z,99993.56
2022-07-30T12:26:34.074Z,99984.50
2022-07-30T12:29:04.988Z,99998.56
2022-07-30T12:31:33.503Z,100003.03
2022-07-30T12:34:00.725Z,100006.47
2022-07-30T12:36:34.021Z,100001.59
2022-07-30T12:39:01.975Z,100002.81
2022-07-30T12:41:45.892Z,99995.34
2022-07-30T12:44:41.552Z,99995.16
2022-07-30T12:47:26.519Z,100000.38
2022-07-30T12:50:00.704Z,100008.25
2022-07-30T12:52:31.675Z,99984.09
2022-07-30T12:55:02.804Z,99992.13
2022-07-30T12:58:07.551Z,99984.53
2022-07-30T13:00:43.938Z,99977.66
2022-07-30T13:03:40.742Z,99981.81
2022-07-30T13:06:33.485Z,99972.06
2022-07-30T13:09:00.701Z,99970.88
2022-07-30T13:11:38.428Z,99967.47
2022-07-30T13:14:05.429Z,99971.13
2022-07-30T13:16:34.744Z,99959.56
2022-07-30T13:19:03.530Z,99962.41
2022-07-30T13:21:30.273Z,99961.91
2022-07-30T13:23:57.063Z,99957.31
2022-07-30T13:26:23.807Z,99954.34
2022-07-30T13:29:01.293Z,99954.84
2022-07-30T13:31:28.478Z,99954.84
2022-07-30T13:34:09.424Z,99957.66
2022-07-30T13:36:36.239Z,99949.22
2022-07-30T13:39:02.970Z,99953.16
2022-07-30T13:41:36.002Z,99945.81
2022-07-30T13:44:03.187Z,99939.06
2022-07-30T13:46:29.940Z,99938.25
2022-07-30T13:48:56.679Z,99942.28
2022-07-30T13:51:23.457Z,99951.13
2022-07-30T13:53:52.315Z,99969.97
2022-07-30T13:56:19.699Z,99949.38
2022-07-30T13:58:47.544Z,99943.09
2022-07-30T14:01:15.807Z,99939.78
2022-07-30T14:03:49.907Z,99934.19
2022-07-30T14:06:22.490Z,99936.22
2022-07-30T14:08:49.264Z,99940.03
2022-07-30T14:11:18.500Z,99922.28
2022-07-30T14:13:45.855Z,99924.75
2022-07-30T14:16:28.862Z,99932.09
2022-07-30T14:19:00.896Z,99936.81
2022-07-30T14:21:27.542Z,99930.47
2022-07-30T14:23:55.038Z,99922.97
2022-07-30T14:26:21.697Z,99915.66
2022-07-30T14:28:48.377Z,99926.19
2022-07-30T14:31:16.703Z,99918.13
2022-07-30T14:33:43.462Z,99920.50
2022-07-30T14:36:10.234Z,99909.25
2022-07-30T14:38:39.704Z,99915.50
2022-07-30T14:41:07.163Z,99913.75
2022-07-30T14:43:33.850Z,99912.91
2022-07-30T14:46:02.530Z,99912.69
2022-07-30T14:48:29.303Z,99914.47
2022-07-30T14:51:13.382Z,99916.38
2022-07-30T14:53:42.623Z,99916.72
2022-07-30T14:56:14.139Z,99908.16
2022-07-30T14:58:41.622Z,99909.34
2022-07-30T15:01:16.667Z,99903.75
2022-07-30T15:03:44.781Z,99910.38
2022-07-30T15:06:12.705Z,99907.41
2022-07-30T15:08:39.380Z,99912.38
2022-07-30T15:11:08.069Z,99908.09
2022-07-30T15:13:36.356Z,99900.50
2022-07-30T15:16:03.109Z,99904.63
2022-07-30T15:18:29.853Z,99909.25
2022-07-30T15:20:58.828Z,99911.28
2022-07-30T15:23:25.582Z,99908.78
2022-07-30T15:25:52.259Z,99901.41
2022-07-30T15:28:19.566Z,99908.06
2022-07-30T15:30:46.315Z,99904.91
2022-07-30T15:33:13.009Z,99908.09
2022-07-30T15:35:39.702Z,99911.56
2022-07-30T15:38:06.359Z,99918.78
2022-07-30T15:40:35.100Z,99921.66
2022-07-30T15:43:01.782Z,99920.84
2022-07-30T15:45:50.091Z,99924.72
2022-07-30T15:48:26.674Z,99919.38
2022-07-30T15:51:01.345Z,99917.34
2022-07-30T15:53:28.090Z,99916.91
2022-07-30T15:55:54.736Z,99918.44
2022-07-30T15:58:21.368Z,99912.50
2022-07-30T16:00:48.384Z,99917.47
2022-07-30T16:03:15.139Z,99919.63
2022-07-30T16:05:51.499Z,99907.53
2022-07-30T16:08:20.110Z,99913.59
2022-07-30T16:10:46.805Z,99904.38
2022-07-30T16:13:13.502Z,99903.31
2022-07-30T16:15:40.165Z,99910.16
2022-07-30T16:18:06.894Z,99903.63
2022-07-30T16:20:33.599Z,99907.78
2022-07-30T16:23:00.689Z,99911.91
2022-07-30T16:25:28.546Z,99904.59
2022-07-30T16:27:55.273Z,99907.31
2022-07-30T16:30:24.263Z,99902.91
2022-07-30T16:32:56.160Z,99905.91
2022-07-30T16:35:23.154Z,99908.63
2022-07-30T16:37:49.814Z,99902.81
2022-07-30T16:40:16.604Z,99909.09
2022-07-30T16:42:43.376Z,99908.25
2022-07-30T16:45:10.419Z,99906.50
2022-07-30T16:47:37.099Z,99908.16
2022-07-30T16:50:04.210Z,99906.25
2022-07-30T16:52:30.934Z,99903.78
2022-07-30T16:54:57.704Z,99901.56
2022-07-30T16:57:24.401Z,99913.50
2022-07-30T16:59:51.105Z,99901.19
2022-07-30T17:02:17.866Z,99898.22
2022-07-30T17:04:44.791Z,99901.78
2022-07-30T17:07:11.453Z,99902.00
2022-07-30T17:09:38.097Z,99902.97
2022-07-30T17:12:11.947Z,99896.81
2022-07-30T17:14:40.812Z,99902.28
2022-07-30T17:17:38.334Z,99893.63
2022-07-30T17:20:06.432Z,99900.97
2022-07-30T17:22:33.415Z,99898.84
2022-07-30T17:25:00.081Z,99902.97
2022-07-30T17:27:28.157Z,99902.38
2022-07-30T17:29:54.886Z,99909.72
2022-07-30T17:32:21.922Z,99911.53
2022-07-30T17:34:49.103Z,99913.03
2022-07-30T17:37:16.106Z,99908.81
2022-07-30T17:40:23.905Z,99918.13
2022-07-30T17:42:35.786Z,99916.16
2022-07-30T17:45:02.588Z,99915.75
2022-07-30T17:47:29.274Z,99922.63
2022-07-30T17:49:55.964Z,99927.25
2022-07-30T17:52:26.766Z,99922.28
2022-07-30T17:54:54.279Z,99930.44
2022-07-30T17:57:21.162Z,99942.38
2022-07-30T17:59:47.891Z,99941.22
2022-07-30T18:02:14.738Z,99940.63
2022-07-30T18:04:43.611Z,99941.69
2022-07-30T18:07:10.244Z,99950.91
2022-07-30T18:09:40.053Z,99948.19
2022-07-30T18:12:07.296Z,99947.47
2022-07-30T18:14:33.956Z,99951.97
2022-07-30T18:17:02.740Z,99961.22
2022-07-30T18:19:29.406Z,99955.06
2022-07-30T18:21:56.142Z,99960.53
2022-07-30T18:24:24.723Z,99956.94
2022-07-30T18:26:51.797Z,99961.34
2022-07-30T18:29:18.461Z,99966.41
2022-07-30T18:31:45.215Z,99972.94
2022-07-30T18:34:11.949Z,99967.13
2022-07-30T18:36:39.667Z,99963.81
2022-07-30T18:39:06.414Z,99972.91
2022-07-30T18:41:33.073Z,99971.25
2022-07-30T18:43:59.785Z,99972.56
2022-07-30T18:46:26.478Z,99982.50
2022-07-30T18:48:53.265Z,99984.22
2022-07-30T18:51:19.993Z,99982.59
2022-07-30T18:54:17.908Z,99985.09
2022-07-30T18:56:44.588Z,99981.25
2022-07-30T18:59:11.287Z,99982.81
2022-07-30T19:01:39.323Z,99986.78
2022-07-30T19:04:06.394Z,99993.53
2022-07-30T19:06:33.034Z,99987.94
2022-07-30T19:09:00.115Z,99994.53
2022-07-30T19:11:26.880Z,99993.34
2022-07-30T19:13:54.608Z,99998.88
2022-07-30T19:16:21.325Z,100001.91
2022-07-30T19:18:48.379Z,100005.53
2022-07-30T19:21:15.065Z,100014.16
2022-07-30T19:23:41.779Z,100013.34
2022-07-30T19:26:08.882Z,100014.22
2022-07-30T19:28:36.261Z,100016.59
2022-07-30T19:31:03.039Z,100014.56
2022-07-30T19:33:29.696Z,100019.84
2022-07-30T19:35:56.343Z,100027.38
2022-07-30T19:38:23.904Z,100023.25
2022-07-30T19:40:51.225Z,100025.97
2022-07-30T19:43:17.979Z,100036.69
2022-07-30T19:45:50.830Z,100035.97
2022-07-30T19:48:28.935Z,100046.44
2022-07-30T19:50:59.048Z,100054.22
2022-07-30T19:53:26.146Z,100055.34
2022-07-30T19:55:55.726Z,100056.16
2022-07-30T19:58:22.614Z,100054.72
2022-07-30T20:00:51.663Z,100057.88
2022-07-30T20:03:25.497Z,100059.38
2022-07-30T20:05:54.919Z,100063.00
2022-07-30T20:08:25.402Z,100065.09
2022-07-30T20:10:52.203Z,100069.91
2022-07-30T20:13:18.983Z,100071.19
2022-07-30T20:15:46.477Z,100082.28
2022-07-30T20:18:13.369Z,100078.97
2022-07-30T20:20:41.397Z,100091.72
2022-07-30T20:23:08.330Z,100082.31
2022-07-30T20:25:37.241Z,100090.44
2022-07-30T20:28:05.106Z,100090.44
2022-07-30T20:30:32.603Z,100086.44
2022-07-30T20:33:04.747Z,100083.59
2022-07-30T20:35:33.886Z,100087.47
2022-07-30T20:38:10.178Z,100085.88
2022-07-30T20:40:37.095Z,100086.53
2022-07-30T20:43:05.967Z,100088.22
2022-07-30T20:45:37.775Z,100089.47
2022-07-30T20:48:08.450Z,100090.13
2022-07-30T20:50:45.975Z,100092.03
2022-07-30T20:53:13.331Z,100088.94
2022-07-30T20:55:40.936Z,100095.00
2022-07-30T20:58:16.729Z,100088.16
2022-07-30T21:00:49.520Z,100085.06
2022-07-30T21:03:21.302Z,100094.94
2022-07-30T21:05:48.511Z,100089.09
2022-07-30T21:08:18.053Z,100094.06
2022-07-30T21:10:46.127Z,100082.66
2022-07-30T21:13:13.624Z,100094.75
2022-07-30T21:16:01.807Z,100092.03
2022-07-30T21:18:27.658Z,100089.91
2022-07-30T21:20:54.291Z,100098.28
2022-07-30T21:23:25.917Z,100094.94
2022-07-30T21:26:00.428Z,100111.44
2022-07-30T21:28:35.147Z,100109.59
2022-07-30T21:31:02.326Z,100113.31
2022-07-30T21:33:31.121Z,100120.69
2022-07-30T21:35:59.277Z,100115.47
2022-07-30T21:38:30.575Z,100120.28
2022-07-30T21:40:58.287Z,100122.41
2022-07-30T21:43:29.408Z,100112.59
2022-07-30T21:45:57.656Z,100112.81
2022-07-30T21:48:24.916Z,100118.44
2022-07-30T21:50:54.166Z,100122.41
2022-07-30T21:53:29.954Z,100121.38
2022-07-30T21:56:07.524Z,100119.31
2022-07-30T21:58:34.222Z,100127.47
2022-07-30T22:04:03.095Z,100134.38
2022-07-30T22:06:40.081Z,100139.41
2022-07-30T22:09:19.629Z,100129.63
2022-07-30T22:11:56.281Z,100138.75
2022-07-30T22:14:25.531Z,100135.84
2022-07-30T22:16:52.862Z,100146.50
2022-07-30T22:19:21.640Z,100148.38
2022-07-30T22:21:49.230Z,100150.66
2022-07-30T22:24:29.431Z,100152.34
2022-07-30T22:26:59.951Z,100154.84
2022-07-30T22:29:34.371Z,100158.19
2022-07-30T22:32:03.938Z,100152.78
2022-07-30T22:34:31.197Z,100158.81
2022-07-30T22:36:58.142Z,100158.19
2022-07-30T22:39:31.689Z,100154.44
2022-07-30T22:42:12.705Z,100154.84
2022-07-30T22:44:39.610Z,100161.50
2022-07-30T22:47:51.483Z,100162.13
2022-07-30T22:50:26.111Z,100160.06
2022-07-30T22:53:14.379Z,100161.72
2022-07-30T22:55:41.503Z,100160.03
2022-07-30T22:58:08.167Z,100156.50
2022-07-30T23:00:36.805Z,100154.44
2022-07-30T23:03:05.193Z,100163.59
2022-07-30T23:05:35.479Z,100158.38
2022-07-30T23:08:03.434Z,100167.53
2022-07-30T23:10:30.251Z,100166.28
2022-07-30T23:12:28.081Z,100135.00
2022-07-30T23:12:58.934Z,100161.50
2022-07-30T23:15:25.610Z,100158.59
2022-07-30T23:17:53.362Z,100156.50
2022-07-30T23:20:20.952Z,100157.75
2022-07-30T23:22:48.004Z,100155.44
2022-07-30T23:25:14.701Z,100154.00
2022-07-30T23:27:46.660Z,100162.75
2022-07-30T23:30:13.799Z,100159.63
2022-07-30T23:32:40.566Z,100154.19
2022-07-30T23:35:08.843Z,100154.00
2022-07-30T23:37:47.596Z,100154.19
2022-07-30T23:40:19.416Z,100155.44
2022-07-30T23:42:47.468Z,100155.22
2022-07-30T23:45:14.474Z,100152.31
2022-07-30T23:47:58.018Z,100152.72
2022-07-30T23:50:27.858Z,100155.63
2022-07-30T23:52:54.526Z,100147.53
2022-07-30T23:55:21.241Z,100147.50
2022-07-30T23:57:48.046Z,100138.97
